createdAt,value
2022-09-15T00:02:07.527Z,1.52
2022-09-15T00:04:38.615Z,1.55
2022-09-15T00:07:08.156Z,2.38
2022-09-15T00:09:37.877Z,1.67
2022-09-15T00:12:07.907Z,1.70
2022-09-15T00:14:37.348Z,1.40
2022-09-15T00:17:06.793Z,1.52
2022-09-15T00:19:37.678Z,1.83
2022-09-15T00:22:07.174Z,1.58
2022-09-15T00:24:37.069Z,1.60
2022-09-15T00:27:06.782Z,1.45
2022-09-15T00:29:36.357Z,2.15
2022-09-15T00:32:06.209Z,1.48
2022-09-15T00:34:37.297Z,1.27
2022-09-15T00:37:07.228Z,1.88
2022-09-15T00:39:36.883Z,2.20
2022-09-15T00:42:07.052Z,1.80
2022-09-15T00:44:58.763Z,1.85
2022-09-15T00:47:35.124Z,1.73
2022-09-15T00:50:11.858Z,1.35
2022-09-15T00:52:47.509Z,1.95
2022-09-15T00:55:23.027Z,1.73
2022-09-15T00:57:58.941Z,1.42
2022-09-15T01:00:30.189Z,1.63
2022-09-15T01:03:00.026Z,1.55
2022-09-15T01:05:37.865Z,1.67
2022-09-15T01:08:12.946Z,1.40
2022-09-15T01:10:43.112Z,1.40
2022-09-15T01:13:15.397Z,1.40
2022-09-15T01:16:01.599Z,1.40
2022-09-15T01:18:45.340Z,1.65
2022-09-15T01:21:38.981Z,1.42
2022-09-15T01:24:44.860Z,1.65
2022-09-15T01:27:55.669Z,1.45
2022-09-15T01:30:27.254Z,1.60
2022-09-15T01:33:22.401Z,1.85
2022-09-15T01:36:09.403Z,1.63
2022-09-15T01:38:56.645Z,1.70
2022-09-15T01:41:33.942Z,1.98
2022-09-15T01:44:09.075Z,2.28
2022-09-15T01:46:47.601Z,1.90
2022-09-15T01:49:24.178Z,1.27
2022-09-15T01:51:55.617Z,1.40
2022-09-15T01:54:33.587Z,1.50
2022-09-15T01:57:03.796Z,1.30
2022-09-15T01:59:33.410Z,1.63
2022-09-15T02:02:09.943Z,1.60
2022-09-15T02:04:46.296Z,2.08
2022-09-15T02:07:26.525Z,1.88
2022-09-15T02:10:11.463Z,1.25
2022-09-15T02:12:50.748Z,1.50
2022-09-15T02:15:29.050Z,1.58
2022-09-15T02:18:03.240Z,1.85
2022-09-15T02:20:49.925Z,1.60
2022-09-15T02:23:27.605Z,1.23
2022-09-15T02:26:04.974Z,1.52
2022-09-15T02:28:39.068Z,1.50
2022-09-15T02:31:16.855Z,1.30
2022-09-15T02:33:54.348Z,1.30
2022-09-15T02:36:24.337Z,1.05
2022-09-15T02:39:00.613Z,1.35
2022-09-15T02:41:30.265Z,1.13
2022-09-15T02:43:59.636Z,1.60
2022-09-15T02:46:29.295Z,1.23
2022-09-15T02:49:00.070Z,1.50
2022-09-15T02:51:29.483Z,1.17
2022-09-15T02:53:59.164Z,1.75
2022-09-15T02:56:28.681Z,1.50
2022-09-15T02:58:58.085Z,1.40
2022-09-15T03:01:32.246Z,1.25
2022-09-15T03:04:05.021Z,2.40
2022-09-15T03:09:08.656Z,1.58
2022-09-15T03:11:38.462Z,1.60
2022-09-15T03:14:08.534Z,1.73
2022-09-15T03:16:37.993Z,1.40
2022-09-15T03:19:08.756Z,1.58
2022-09-15T03:21:38.148Z,1.25
2022-09-15T03:24:07.764Z,1.30
2022-09-15T03:26:37.193Z,2.03
2022-09-15T03:29:06.577Z,1.35
2022-09-15T03:31:35.985Z,1.73
2022-09-15T03:34:06.041Z,1.27
2022-09-15T03:36:36.846Z,1.40
2022-09-15T03:39:06.489Z,1.50
2022-09-15T03:41:35.939Z,1.20
2022-09-15T03:44:05.658Z,1.58
2022-09-15T03:46:35.906Z,1.35
2022-09-15T03:49:05.309Z,1.25
2022-09-15T03:51:36.038Z,1.13
2022-09-15T03:54:05.900Z,1.10
2022-09-15T03:56:35.597Z,1.17
2022-09-15T03:59:06.810Z,1.55
2022-09-15T04:01:37.023Z,1.42
2022-09-15T04:04:06.839Z,1.27
2022-09-15T04:06:38.157Z,1.30
2022-09-15T04:09:07.771Z,1.23
2022-09-15T04:11:39.455Z,1.63
2022-09-15T04:14:08.813Z,1.10
2022-09-15T04:16:38.274Z,0.90
2022-09-15T04:19:07.713Z,1.25
2022-09-15T04:21:38.484Z,1.30
2022-09-15T04:24:08.114Z,1.00
2022-09-15T04:26:38.949Z,1.10
2022-09-15T04:29:16.345Z,1.13
2022-09-15T04:31:46.712Z,1.08
2022-09-15T04:34:16.253Z,0.90
2022-09-15T04:36:47.244Z,1.00
2022-09-15T04:39:16.779Z,1.13
2022-09-15T04:41:46.187Z,1.27
2022-09-15T04:44:15.725Z,1.20
2022-09-15T04:46:45.421Z,0.85
2022-09-15T04:49:14.917Z,1.10
2022-09-15T04:51:45.784Z,0.80
2022-09-15T04:54:15.262Z,1.00
2022-09-15T04:56:45.585Z,1.05
2022-09-15T04:59:18.457Z,1.10
2022-09-15T05:01:48.678Z,0.80
2022-09-15T05:04:18.154Z,0.90
2022-09-15T05:06:49.145Z,0.80
2022-09-15T05:09:18.705Z,0.95
2022-09-15T05:11:48.181Z,0.85
2022-09-15T05:14:18.040Z,1.02
2022-09-15T05:16:47.511Z,0.90
2022-09-15T05:19:16.934Z,1.00
2022-09-15T05:21:47.734Z,0.60
2022-09-15T05:24:17.321Z,1.40
2022-09-15T05:26:46.673Z,1.15
2022-09-15T05:29:16.385Z,0.80
2022-09-15T05:31:45.849Z,0.80
2022-09-15T05:34:16.449Z,1.25
2022-09-15T05:36:46.032Z,0.93
2022-09-15T05:39:17.186Z,0.90
2022-09-15T05:41:46.665Z,1.20
2022-09-15T05:44:16.412Z,0.50
2022-09-15T05:46:45.854Z,0.85
2022-09-15T05:49:15.297Z,0.90
2022-09-15T05:51:44.772Z,1.67
2022-09-15T05:54:14.235Z,0.80
2022-09-15T05:56:45.016Z,1.17
2022-09-15T05:59:14.496Z,1.00
2022-09-15T06:01:43.907Z,0.90
2022-09-15T06:04:13.408Z,0.93
2022-09-15T06:06:42.805Z,0.90
2022-09-15T06:09:12.237Z,0.75
2022-09-15T06:11:41.682Z,0.60
2022-09-15T06:14:14.385Z,0.90
2022-09-15T06:19:13.027Z,0.60
2022-09-15T06:21:42.531Z,0.80
2022-09-15T06:24:13.610Z,0.93
2022-09-15T06:26:43.049Z,1.08
2022-09-15T06:29:14.224Z,0.77
2022-09-15T06:31:43.852Z,0.93
2022-09-15T06:34:13.455Z,0.90
2022-09-15T06:36:42.943Z,1.17
2022-09-15T06:39:12.342Z,0.80
2022-09-15T06:42:01.319Z,0.90
2022-09-15T06:44:32.636Z,1.20
2022-09-15T06:47:02.080Z,0.80
2022-09-15T06:49:31.792Z,1.13
2022-09-15T06:52:01.916Z,1.00
2022-09-15T06:54:32.524Z,1.85
2022-09-15T06:57:01.929Z,1.23
2022-09-15T06:59:32.701Z,1.45
2022-09-15T07:02:05.164Z,1.00
2022-09-15T07:07:06.481Z,0.90
2022-09-15T07:09:38.806Z,1.13
2022-09-15T07:12:10.615Z,1.15
2022-09-15T07:14:41.647Z,0.90
2022-09-15T07:17:11.033Z,0.80
2022-09-15T07:19:41.477Z,0.88
2022-09-15T07:22:11.933Z,0.85
2022-09-15T07:24:41.320Z,0.90
2022-09-15T07:27:10.780Z,1.48
2022-09-15T07:29:41.514Z,1.02
2022-09-15T07:32:11.024Z,1.00
2022-09-15T07:34:42.841Z,1.10
2022-09-15T07:37:12.247Z,1.05
2022-09-15T07:39:41.698Z,1.00
2022-09-15T07:42:11.274Z,0.93
2022-09-15T07:44:42.112Z,1.10
2022-09-15T07:47:13.977Z,1.20
2022-09-15T07:49:43.379Z,0.80
2022-09-15T07:52:12.865Z,1.00
2022-09-15T07:54:42.292Z,1.35
2022-09-15T07:57:11.698Z,1.50
2022-09-15T07:59:42.486Z,0.98
2022-09-15T08:02:18.758Z,1.20
2022-09-15T08:04:48.485Z,0.60
2022-09-15T08:07:20.048Z,0.65
2022-09-15T08:09:49.424Z,0.90
2022-09-15T08:12:21.073Z,0.98
2022-09-15T08:14:51.833Z,1.00
2022-09-15T08:17:21.339Z,0.90
2022-09-15T08:19:50.765Z,1.05
2022-09-15T08:22:20.182Z,1.02
2022-09-15T08:24:49.581Z,0.82
2022-09-15T08:27:19.053Z,1.27
2022-09-15T08:29:48.746Z,1.17
2022-09-15T08:32:19.913Z,0.95
2022-09-15T08:34:49.313Z,0.85
2022-09-15T08:37:18.890Z,1.10
2022-09-15T08:39:49.062Z,1.30
2022-09-15T08:42:23.034Z,1.20
2022-09-15T08:45:00.006Z,1.17
2022-09-15T08:47:37.410Z,1.17
2022-09-15T08:50:16.497Z,1.00
2022-09-15T08:52:52.227Z,1.17
2022-09-15T08:55:39.121Z,1.45
2022-09-15T08:58:16.345Z,0.88
2022-09-15T09:00:48.851Z,1.27
2022-09-15T09:03:59.761Z,0.90
2022-09-15T09:06:37.099Z,1.15
2022-09-15T09:09:29.951Z,1.10
2022-09-15T09:12:31.072Z,1.73
2022-09-15T09:15:26.944Z,1.70
2022-09-15T09:18:59.620Z,1.50
2022-09-15T09:21:33.667Z,1.10
2022-09-15T09:24:14.137Z,1.67
2022-09-15T09:26:44.568Z,1.50
2022-09-15T09:29:19.417Z,1.25
2022-09-15T09:31:52.170Z,1.17
2022-09-15T09:37:01.044Z,1.00
2022-09-15T09:39:30.534Z,1.10
2022-09-15T09:42:00.227Z,1.13
2022-09-15T09:44:32.645Z,1.42
2022-09-15T09:47:03.962Z,1.20
2022-09-15T09:49:40.018Z,1.05
2022-09-15T09:52:09.451Z,1.02
2022-09-15T09:54:39.263Z,1.42
2022-09-15T09:57:29.078Z,0.77
2022-09-15T09:59:59.269Z,1.33
2022-09-15T10:02:29.913Z,1.20
2022-09-15T10:05:21.132Z,0.90
2022-09-15T10:07:50.715Z,1.30
2022-09-15T10:10:23.881Z,1.17
2022-09-15T10:12:56.740Z,1.00
2022-09-15T10:15:28.829Z,1.10
2022-09-15T10:17:59.054Z,1.08
2022-09-15T10:20:34.071Z,1.00
2022-09-15T10:23:07.673Z,0.85
2022-09-15T10:28:29.371Z,0.85
2022-09-15T10:31:07.573Z,1.00
2022-09-15T10:33:38.999Z,0.70
2022-09-15T10:36:17.765Z,0.82
2022-09-15T10:38:50.381Z,1.00
2022-09-15T10:44:31.673Z,1.08
2022-09-15T10:47:15.394Z,1.15
2022-09-15T10:50:09.208Z,0.93
2022-09-15T10:53:05.971Z,0.95
2022-09-15T10:55:52.812Z,0.85
2022-09-15T10:58:45.860Z,1.48
2022-09-15T11:01:52.894Z,1.00
2022-09-15T11:05:20.564Z,1.00
2022-09-15T11:08:26.418Z,1.52
2022-09-15T11:11:08.862Z,0.98
2022-09-15T11:13:58.785Z,1.10
2022-09-15T11:16:53.647Z,1.27
2022-09-15T11:19:56.678Z,1.20
2022-09-15T11:22:32.669Z,0.95
2022-09-15T11:25:13.931Z,1.23
2022-09-15T11:27:48.269Z,1.02
2022-09-15T11:30:21.787Z,1.17
2022-09-15T11:32:59.895Z,1.92
2022-09-15T11:35:43.801Z,0.80
2022-09-15T11:38:35.610Z,1.20
2022-09-15T11:41:27.270Z,1.25
2022-09-15T11:44:17.600Z,1.10
2022-09-15T11:47:12.453Z,1.35
2022-09-15T11:49:48.943Z,1.20
2022-09-15T11:52:48.132Z,1.10
2022-09-15T11:55:31.590Z,1.40
2022-09-15T11:58:22.389Z,1.05
2022-09-15T12:00:58.417Z,0.98
2022-09-15T12:03:38.821Z,1.05
2022-09-15T12:06:17.191Z,1.38
2022-09-15T12:08:53.842Z,1.20
2022-09-15T12:11:28.824Z,1.42
2022-09-15T12:14:01.126Z,1.08
2022-09-15T12:16:31.650Z,1.00
2022-09-15T12:19:08.423Z,1.10
2022-09-15T12:21:49.083Z,0.93
2022-09-15T12:24:30.909Z,0.80
2022-09-15T12:27:02.322Z,0.98
2022-09-15T12:29:42.174Z,0.90
2022-09-15T12:32:24.631Z,0.80
2022-09-15T12:35:08.955Z,1.13
2022-09-15T12:37:46.154Z,1.20
2022-09-15T12:40:37.065Z,1.35
2022-09-15T12:43:22.878Z,0.95
2022-09-15T12:46:01.223Z,1.20
2022-09-15T12:48:33.854Z,0.90
2022-09-15T12:53:39.598Z,1.10
2022-09-15T12:56:23.498Z,1.05
2022-09-15T12:58:54.785Z,0.95
2022-09-15T13:01:49.502Z,1.05
2022-09-15T13:04:53.441Z,0.90
2022-09-15T13:07:38.533Z,0.95
2022-09-15T13:10:36.963Z,0.65
2022-09-15T13:13:20.885Z,0.90
2022-09-15T13:15:54.400Z,0.80
2022-09-15T13:18:26.469Z,0.77
2022-09-15T13:21:05.361Z,0.90
2022-09-15T13:23:42.379Z,0.95
2022-09-15T13:26:22.597Z,0.85
2022-09-15T13:28:56.392Z,0.90
2022-09-15T13:31:40.797Z,0.98
2022-09-15T13:35:27.157Z,0.77
2022-09-15T13:38:46.737Z,0.95
2022-09-15T13:41:57.905Z,1.30
2022-09-15T13:45:24.108Z,0.88
2022-09-15T13:48:47.521Z,1.08
2022-09-15T13:51:26.557Z,1.00
2022-09-15T13:53:59.641Z,0.80
2022-09-15T13:56:32.001Z,0.70
2022-09-15T13:59:09.950Z,0.85
2022-09-15T14:01:43.077Z,1.00
2022-09-15T14:04:17.637Z,0.82
2022-09-15T14:06:51.695Z,0.93
2022-09-15T14:09:27.538Z,1.00
2022-09-15T14:12:02.429Z,1.00
2022-09-15T14:14:40.291Z,1.10
2022-09-15T14:17:21.496Z,0.82
2022-09-15T14:19:53.405Z,1.10
2022-09-15T14:22:30.356Z,1.08
2022-09-15T14:25:06.875Z,1.20
2022-09-15T14:27:44.381Z,1.02
2022-09-15T14:30:22.897Z,1.45
2022-09-15T14:32:56.066Z,1.20
2022-09-15T14:35:31.762Z,1.10
2022-09-15T14:38:02.740Z,1.40
2022-09-15T14:40:36.781Z,1.15
2022-09-15T14:43:26.815Z,1.20
2022-09-15T14:46:05.679Z,0.98
2022-09-15T14:48:38.192Z,0.88
2022-09-15T14:51:20.004Z,0.93
2022-09-15T14:53:55.336Z,0.60
2022-09-15T14:56:29.728Z,1.17
2022-09-15T14:59:05.973Z,1.00
2022-09-15T15:01:40.529Z,1.30
2022-09-15T15:04:19.057Z,1.50
2022-09-15T15:06:58.159Z,1.00
2022-09-15T15:09:37.585Z,1.20
2022-09-15T15:12:19.314Z,1.50
2022-09-15T15:14:48.955Z,1.50
2022-09-15T15:17:35.625Z,1.38
2022-09-15T15:20:19.421Z,1.58
2022-09-15T15:22:49.640Z,1.50
2022-09-15T15:25:32.231Z,1.40
2022-09-15T15:28:02.480Z,1.33
2022-09-15T15:30:46.911Z,1.60
2022-09-15T15:33:25.334Z,1.13
2022-09-15T15:36:07.464Z,1.30
2022-09-15T15:38:42.683Z,1.20
2022-09-15T15:41:25.152Z,1.10
2022-09-15T15:44:03.262Z,1.00
2022-09-15T15:46:52.757Z,1.10
2022-09-15T15:49:27.321Z,1.17
2022-09-15T15:51:58.442Z,1.10
2022-09-15T15:54:28.720Z,1.50
2022-09-15T15:57:23.858Z,1.20
2022-09-15T15:59:58.461Z,1.38
2022-09-15T16:02:28.738Z,1.75
2022-09-15T16:04:58.102Z,1.92
2022-09-15T16:07:33.171Z,1.42
2022-09-15T16:10:03.373Z,1.95
2022-09-15T16:12:35.448Z,1.80
2022-09-15T16:15:14.884Z,2.13
2022-09-15T16:17:46.885Z,1.80
2022-09-15T16:20:19.578Z,2.33
2022-09-15T16:22:49.092Z,2.50
2022-09-15T16:25:31.407Z,2.10
2022-09-15T16:28:02.999Z,1.92
2022-09-15T16:30:35.156Z,2.13
2022-09-15T16:33:05.047Z,1.80
2022-09-15T16:35:44.143Z,1.90
2022-09-15T16:38:13.778Z,3.28
2022-09-15T16:40:43.170Z,2.70
2022-09-15T16:43:18.990Z,2.38
2022-09-15T16:45:50.474Z,2.85
2022-09-15T16:48:20.687Z,2.38
2022-09-15T16:51:09.548Z,2.72
2022-09-15T16:53:41.093Z,3.30
2022-09-15T16:56:13.542Z,3.00
2022-09-15T16:58:44.931Z,3.35
2022-09-15T17:01:19.687Z,3.45
2022-09-15T17:03:49.977Z,2.95
2022-09-15T17:06:19.512Z,3.88
2022-09-15T17:08:49.045Z,3.50
2022-09-15T17:11:23.714Z,2.95
2022-09-15T17:13:54.719Z,3.42
2022-09-15T17:16:24.414Z,3.15
2022-09-15T17:18:54.063Z,3.80
2022-09-15T17:21:23.512Z,3.58
2022-09-15T17:23:53.241Z,3.40
2022-09-15T17:26:30.478Z,3.30
2022-09-15T17:29:02.250Z,3.50
2022-09-15T17:31:32.387Z,4.00
2022-09-15T17:34:02.586Z,5.13
2022-09-15T17:36:32.182Z,3.40
2022-09-15T17:39:01.588Z,3.53
2022-09-15T17:41:32.521Z,3.53
2022-09-15T17:44:03.729Z,3.63
2022-09-15T17:46:33.168Z,3.30
2022-09-15T17:49:02.575Z,3.97
2022-09-15T17:51:32.006Z,3.10
2022-09-15T17:54:01.618Z,3.80
2022-09-15T17:56:31.227Z,4.53
2022-09-15T17:59:02.004Z,4.10
2022-09-15T18:01:31.450Z,3.70
2022-09-15T18:04:01.132Z,4.43
2022-09-15T18:06:30.586Z,3.63
2022-09-15T18:08:59.992Z,3.83
2022-09-15T18:11:29.411Z,3.78
2022-09-15T18:13:59.136Z,4.45
2022-09-15T18:16:30.032Z,3.60
2022-09-15T18:18:59.438Z,3.28
2022-09-15T18:21:30.914Z,3.85
2022-09-15T18:24:00.295Z,3.38
2022-09-15T18:26:29.704Z,3.28
2022-09-15T18:28:59.189Z,4.22
2022-09-15T18:31:30.222Z,3.40
2022-09-15T18:33:59.672Z,4.40
2022-09-15T18:36:29.758Z,4.03
2022-09-15T18:39:00.847Z,4.47
2022-09-15T18:41:30.285Z,3.70
2022-09-15T18:43:59.684Z,3.67
2022-09-15T18:46:30.620Z,4.53
2022-09-15T18:49:00.088Z,4.47
2022-09-15T18:51:50.479Z,4.95
2022-09-15T18:54:19.131Z,4.30
2022-09-15T18:56:48.840Z,5.38
2022-09-15T18:59:18.291Z,6.03
2022-09-15T19:01:49.165Z,4.97
2022-09-15T19:04:18.784Z,6.18
2022-09-15T19:06:48.178Z,5.38
2022-09-15T19:09:17.806Z,5.78
2022-09-15T19:11:47.227Z,5.63
2022-09-15T19:14:16.777Z,6.18
2022-09-15T19:16:57.708Z,6.07
2022-09-15T19:19:29.598Z,5.72
2022-09-15T19:21:58.996Z,5.30
2022-09-15T19:24:33.471Z,6.15
2022-09-15T19:27:03.891Z,5.65
2022-09-15T19:29:34.767Z,5.65
2022-09-15T19:32:08.192Z,5.82
2022-09-15T19:34:41.889Z,5.43
2022-09-15T19:37:18.482Z,5.28
2022-09-15T19:39:49.894Z,5.13
2022-09-15T19:42:19.466Z,5.88
2022-09-15T19:44:49.479Z,5.65
2022-09-15T19:47:18.929Z,5.57
2022-09-15T19:49:52.009Z,5.30
2022-09-15T19:52:21.598Z,5.90
2022-09-15T19:54:51.221Z,6.13
2022-09-15T19:57:21.113Z,6.80
2022-09-15T19:59:50.932Z,5.40
2022-09-15T20:02:20.361Z,6.95
2022-09-15T20:04:51.114Z,6.32
2022-09-15T20:07:20.534Z,5.65
2022-09-15T20:09:51.533Z,6.15
2022-09-15T20:14:55.462Z,6.55
2022-09-15T20:17:25.322Z,6.82
2022-09-15T20:19:56.186Z,6.38
2022-09-15T20:22:25.709Z,5.32
2022-09-15T20:24:56.065Z,6.07
2022-09-15T20:27:25.470Z,5.90
2022-09-15T20:29:57.059Z,6.80
2022-09-15T20:32:29.182Z,5.75
2022-09-15T20:34:59.972Z,6.33
2022-09-15T20:37:30.585Z,5.22
2022-09-15T20:42:32.228Z,5.15
2022-09-15T20:45:01.673Z,5.22
2022-09-15T20:47:31.063Z,5.60
2022-09-15T20:50:01.836Z,5.32
2022-09-15T20:52:36.008Z,5.53
2022-09-15T20:55:08.600Z,5.78
2022-09-15T20:57:37.996Z,5.00
2022-09-15T21:00:10.434Z,4.85
2022-09-15T21:02:39.933Z,5.30
2022-09-15T21:05:11.202Z,5.30
2022-09-15T21:07:40.860Z,5.78
2022-09-15T21:10:11.007Z,5.20
2022-09-15T21:12:40.417Z,5.03
2022-09-15T21:15:12.012Z,5.88
2022-09-15T21:17:41.409Z,5.78
2022-09-15T21:20:12.458Z,5.63
2022-09-15T21:22:41.900Z,6.30
2022-09-15T21:25:11.316Z,7.25
2022-09-15T21:27:40.790Z,7.10
2022-09-15T21:30:12.321Z,5.72
2022-09-15T21:32:41.749Z,5.70
2022-09-15T21:35:12.730Z,6.07
2022-09-15T21:37:42.270Z,5.65
2022-09-15T21:40:12.962Z,7.07
2022-09-15T21:42:42.422Z,6.75
2022-09-15T21:45:12.358Z,5.43
2022-09-15T21:47:41.752Z,6.50
2022-09-15T21:50:12.681Z,6.72
2022-09-15T21:52:42.612Z,6.65
2022-09-15T21:55:12.077Z,7.32
2022-09-15T21:57:41.441Z,5.80
2022-09-15T22:00:13.935Z,6.55
2022-09-15T22:02:43.411Z,7.15
2022-09-15T22:05:14.161Z,7.10
2022-09-15T22:07:43.622Z,8.52
2022-09-15T22:10:13.013Z,8.52
2022-09-15T22:12:42.402Z,8.00
2022-09-15T22:15:12.254Z,8.50
2022-09-15T22:17:42.261Z,8.23
2022-09-15T22:20:13.227Z,8.35
2022-09-15T22:22:44.167Z,8.13
2022-09-15T22:25:16.488Z,8.00
2022-09-15T22:27:47.957Z,8.52
2022-09-15T22:30:17.548Z,8.02
2022-09-15T22:32:46.940Z,7.78
2022-09-15T22:35:18.328Z,7.95
2022-09-15T22:37:47.713Z,8.60
2022-09-15T22:40:18.027Z,6.75
2022-09-15T22:42:47.533Z,7.30
2022-09-15T22:45:17.615Z,8.43
2022-09-15T22:47:47.014Z,7.53
2022-09-15T22:50:18.007Z,7.80
2022-09-15T22:52:48.137Z,7.47
2022-09-15T22:55:17.651Z,7.85
2022-09-15T22:57:49.999Z,7.35
2022-09-15T23:00:20.149Z,8.60
2022-09-15T23:02:49.984Z,7.70
2022-09-15T23:05:20.947Z,7.50
2022-09-15T23:07:50.343Z,7.38
2022-09-15T23:10:19.774Z,7.78
2022-09-15T23:12:49.164Z,7.70
2022-09-15T23:15:19.711Z,8.60
2022-09-15T23:17:49.138Z,7.97
2022-09-15T23:20:20.218Z,7.85
2022-09-15T23:22:49.671Z,7.53
2022-09-15T23:25:19.194Z,8.20
2022-09-15T23:27:48.601Z,8.57
2022-09-15T23:30:18.169Z,7.88
2022-09-15T23:32:47.610Z,7.60
2022-09-15T23:35:17.152Z,7.47
2022-09-15T23:37:47.902Z,8.95
2022-09-15T23:40:17.602Z,7.78
2022-09-15T23:42:47.360Z,7.72
2022-09-15T23:45:17.024Z,8.32
2022-09-15T23:47:47.015Z,7.80
2022-09-15T23:50:16.641Z,7.65
2022-09-15T23:52:47.435Z,6.93
2022-09-15T23:55:17.081Z,7.65
2022-09-15T23:57:46.495Z,6.43
